Latest Weather Observations for Horn Island

IDQ60801

Issued at 4:35 am EST Friday 18 April 2014 (issued every 30 minutes, with the page automatically refreshed every 10 minutes)

About weather observations | Map of weather stations | Latest weather observations for QLD | Other Formats
Station Details ID: 027058 Name: HORN ISLAND Lat: -10.58 Lon: 142.29 Height: 4.0 m
Data from the previous 72 hours. | See also: Recent months at Horn Island
Date/Time
EST
Temp
°C
App
Temp
°C
Dew
Point
Rel
Hum
%
Delta-T
°C
Wind Press
QNH
hPa
Press
MSL
hPa
Rain
since 9 am
mm
Dir
 
Spd
km/h
Gust
km/h
Spd
kts
Gust
kts
18/04:30am 27.5 30.2 24.7 85 2.0 ESE 19 30 10 16 1009.2 - 0.0
18/04:00am 27.6 29.8 24.8 85 2.0 ESE 22 32 12 17 1009.2 - 0.0
18/03:30am 27.6 29.8 24.8 85 2.0 ESE 22 30 12 16 1009.4 - 0.0
18/03:00am 27.3 29.4 24.7 86 1.8 ESE 22 32 12 17 1009.3 1009.3 0.0
18/02:30am 27.8 29.8 24.6 83 2.2 ESE 22 32 12 17 1009.4 - 0.0
18/02:00am 27.9 29.1 24.5 82 2.4 ESE 26 35 14 19 1009.1 - 0.0
18/01:30am 28.0 29.0 24.8 83 2.2 E 28 37 15 20 1009.4 - 0.0
18/01:00am 28.0 29.0 24.8 83 2.2 ESE 28 37 15 20 1009.8 - 0.0
18/12:30am 27.9 29.2 24.7 83 2.2 ESE 26 37 14 20 1009.9 - 0.0
18/12:00am 28.0 28.3 24.8 83 2.2 ESE 32 44 17 24 1010.1 1010.1 0.0
 
Date/Time
EST
Temp
°C
App
Temp
°C
Dew
Point
Rel
Hum
%
Delta-T
°C
Wind Press
QNH
hPa
Press
MSL
hPa
Rain
since 9 am
mm
Dir
 
Spd
km/h
Gust
km/h
Spd
kts
Gust
kts
17/11:30pm 27.9 27.9 24.7 83 2.2 ESE 33 46 18 25 1010.4 - 0.0
17/11:00pm 28.1 28.7 24.7 82 2.4 ESE 30 43 16 23 1010.6 - 0.0
17/10:30pm 28.0 29.8 24.8 83 2.2 ESE 24 35 13 19 1010.8 - 0.0
17/10:00pm 28.1 29.1 24.7 82 2.4 ESE 28 41 15 22 1010.8 - 0.0
17/09:30pm 28.0 28.9 24.6 82 2.4 ESE 28 41 15 22 1010.7 - 0.0
17/09:00pm 28.3 28.5 24.7 81 2.5 E 32 46 17 25 1010.6 1010.6 0.0
17/08:30pm 28.1 29.1 24.7 82 2.4 E 28 37 15 20 1010.7 - 0.0
17/08:00pm 27.9 30.0 24.7 83 2.2 ESE 22 32 12 17 1010.5 - 0.0
17/07:30pm 27.7 29.0 24.1 81 2.5 ESE 24 37 13 20 1009.9 - 0.0
17/07:00pm 28.1 28.0 24.3 80 2.6 ESE 32 39 17 21 1009.1 - 0.0
17/06:30pm 28.2 28.8 24.2 79 2.8 ESE 28 37 15 20 1008.7 - 0.0
17/06:00pm 28.5 29.6 24.3 78 2.9 ESE 26 37 14 20 1008.6 1008.6 0.0
17/05:30pm 28.9 29.5 24.2 76 3.3 ESE 28 37 15 20 1008.5 - 0.0
17/05:00pm 29.3 30.6 24.6 76 3.3 ESE 26 35 14 19 1008.4 - 0.0
17/04:30pm 29.8 30.9 24.9 75 3.4 E 28 35 15 19 1008.2 - 0.0
17/04:00pm 30.1 31.4 25.2 75 3.5 ESE 28 39 15 21 1008.4 - 0.0
17/03:30pm 30.3 32.4 25.4 75 3.5 E 24 32 13 17 1008.4 - 0.0
17/03:00pm 30.0 32.0 25.1 75 3.5 ESE 24 35 13 19 1008.7 1008.7 0.0
17/02:30pm 31.0 33.5 26.0 74 3.6 E 24 37 13 20 1009.1 - 0.0
17/02:00pm 30.5 31.6 25.6 75 3.5 E 30 39 16 21 1009.2 - 0.0
17/01:30pm 30.5 31.4 25.8 76 3.3 E 32 43 17 23 1009.4 - 0.0
17/01:00pm 30.7 32.0 25.8 75 3.5 E 30 44 16 24 1009.8 - 0.0
17/12:30pm 30.5 31.9 26.0 77 3.2 E 30 41 16 22 1010.2 - 0.0
17/12:00pm 30.6 32.6 26.3 78 3.1 ESE 28 39 15 21 1010.6 1010.6 0.0
17/11:30am 30.0 31.0 26.0 79 2.8 ESE 32 43 17 23 1010.9 - 0.0
17/11:00am 30.0 31.1 26.2 80 2.7 ESE 32 43 17 23 1011.2 - 0.0
17/10:30am 30.2 32.1 26.8 82 2.4 E 30 43 16 23 1011.4 - 0.0
17/10:00am 29.9 32.0 27.1 85 2.0 ESE 30 39 16 21 1011.4 - 0.0
17/09:30am 29.8 33.1 27.6 88 1.6 E 26 35 14 19 1011.5 - 0.0
17/09:00am 28.4 32.2 26.8 91 1.1 ESE 20 30 11 16 1011.2 1011.2 0.4
17/08:30am 27.8 31.7 26.6 93 0.9 E 19 30 10 16 1010.9 - 0.4
17/08:00am 27.2 30.6 26.1 94 0.8 E 20 28 11 15 1010.8 - 0.2
17/07:48am 27.0 30.2 25.9 94 0.8 ESE 20 26 11 14 1010.7 - 0.2
17/07:30am 26.7 30.8 25.7 94 0.7 ESE 15 26 8 14 1010.5 - 0.0
17/07:00am 26.7 30.4 25.7 94 0.7 SE 17 24 9 13 1009.9 - 0.0
17/06:56am 26.8 30.2 25.8 94 0.7 SE 19 32 10 17 1009.9 - 0.0
17/06:52am 27.0 30.2 25.9 94 0.8 ESE 20 32 11 17 1009.9 - 0.0
17/06:30am 26.7 29.8 25.7 94 0.7 ESE 20 26 11 14 1009.5 - 0.0
17/06:00am 26.5 29.5 25.5 94 0.7 ESE 20 28 11 15 1009.4 1009.4 0.0
17/05:33am 26.5 29.9 25.3 93 0.8 SE 17 28 9 15 1009.3 - 0.0
17/05:30am 26.4 30.1 25.2 93 0.8 SE 15 22 8 12 1009.3 - 0.0
17/05:00am 25.7 28.5 24.3 92 1.0 ESE 17 22 9 12 1008.9 - 0.0
17/04:30am 26.1 28.6 24.5 91 1.1 ESE 19 26 10 14 1009.1 - 0.0
17/04:19am 26.5 28.7 24.9 91 1.1 ESE 22 28 12 15 1009.1 - 0.0
17/04:03am 27.1 30.3 25.5 91 1.1 ESE 19 30 10 16 1009.2 - 0.0
17/04:00am 27.0 30.5 25.4 91 1.1 ESE 17 30 9 16 1009.2 - 0.0
17/03:30am 27.0 29.8 25.2 90 1.3 ESE 20 26 11 14 1009.0 - 0.0
17/03:00am 27.1 30.3 25.5 91 1.1 ESE 19 24 10 13 1009.1 1009.1 0.0
17/02:49am 27.0 30.1 25.4 91 1.1 ESE 19 26 10 14 1009.2 - 0.0
17/02:30am 26.9 29.8 25.1 90 1.3 ESE 19 24 10 13 1009.4 - 0.0
17/02:17am 26.9 29.2 25.1 90 1.3 ESE 22 30 12 16 1009.4 - 0.0
17/02:00am 27.0 29.8 25.2 90 1.3 ESE 20 30 11 16 1009.4 - 0.0
17/01:56am 27.0 30.0 25.2 90 1.3 ESE 19 26 10 14 1009.4 - 0.0
17/01:30am 27.1 30.1 25.5 91 1.1 ESE 20 30 11 16 1009.0 - 0.0
17/01:00am 26.9 29.9 25.3 91 1.1 ESE 19 26 10 14 1009.3 - 0.0
17/12:30am 26.8 29.6 25.0 90 1.3 ESE 19 26 10 14 1009.9 - 0.0
17/12:00am 26.8 29.6 25.0 90 1.3 ESE 19 24 10 13 1010.5 1010.5 0.0
 
Date/Time
EST
Temp
°C
App
Temp
°C
Dew
Point
Rel
Hum
%
Delta-T
°C
Wind Press
QNH
hPa
Press
MSL
hPa
Rain
since 9 am
mm
Dir
 
Spd
km/h
Gust
km/h
Spd
kts
Gust
kts
16/11:30pm 27.2 31.3 25.2 89 1.4 SE 13 19 7 10 1010.3 - 0.0
16/11:00pm 27.3 31.5 25.3 89 1.4 SE 13 19 7 10 1010.4 - 0.0
16/10:30pm 27.1 30.8 25.1 89 1.4 SE 15 20 8 11 1010.4 - 0.0
16/10:00pm 27.1 31.5 25.1 89 1.4 ESE 11 15 6 8 1010.6 - 0.0
16/09:30pm 27.1 31.4 24.9 88 1.5 SE 11 15 6 8 1010.5 - 0.0
16/09:00pm 27.2 31.4 24.8 87 1.7 SE 11 17 6 9 1010.5 1010.5 0.0
16/08:30pm 27.4 31.0 25.0 87 1.7 ESE 15 20 8 11 1010.1 - 0.0
16/08:00pm 27.4 31.0 25.0 87 1.7 SE 15 20 8 11 1009.8 - 0.0
16/07:30pm 27.5 30.5 24.7 85 1.9 ESE 17 22 9 12 1009.4 - 0.0
16/07:00pm 27.7 30.6 24.5 83 2.2 ESE 17 24 9 13 1008.9 - 0.0
16/06:30pm 28.1 31.4 24.5 81 2.5 E 15 20 8 11 1008.3 - 0.0
16/06:00pm 28.4 31.3 24.4 79 2.8 E 17 20 9 11 1008.1 1008.1 0.0
16/05:30pm 28.9 31.6 24.7 78 2.9 E 19 26 10 14 1007.8 - 0.0
16/05:00pm 29.1 31.7 24.9 78 2.9 E 20 26 11 14 1007.6 - 0.0
16/04:30pm 29.3 32.2 25.1 78 2.9 E 19 24 10 13 1007.5 - 0.0
16/04:00pm 29.4 32.2 24.9 77 3.2 E 19 24 10 13 1007.4 - 0.0
16/03:30pm 29.4 32.4 25.2 78 3.0 ENE 19 24 10 13 1007.7 - 0.0
16/03:00pm 29.7 32.8 25.7 79 2.8 E 20 28 11 15 1007.8 1007.8 0.0
16/02:30pm 29.7 33.1 25.9 80 2.7 E 19 28 10 15 1008.2 - 0.0
16/02:00pm 29.3 32.1 25.3 79 2.8 ENE 20 28 11 15 1008.4 - 0.0
16/01:30pm 30.1 33.0 26.5 81 2.6 E 24 30 13 16 1008.8 - 0.0
16/01:00pm 29.8 32.8 26.2 81 2.6 E 22 30 12 16 1009.2 - 0.0
16/12:30pm 29.7 32.6 25.9 80 2.7 E 22 30 12 16 1009.8 - 0.0
16/12:00pm 29.5 32.4 25.9 81 2.6 E 22 30 12 16 1010.1 1010.1 0.0
16/11:30am 29.8 33.2 26.2 81 2.6 ENE 20 30 11 16 1010.5 - 0.0
16/11:00am 29.4 32.7 26.0 82 2.4 ENE 20 28 11 15 1010.9 - 0.0
16/10:30am 29.5 32.6 26.3 83 2.3 ENE 22 28 12 15 1011.2 - 0.0
16/10:00am 29.5 32.9 26.7 85 2.0 ENE 22 30 12 16 1011.2 - 0.0
16/09:30am 28.9 32.9 26.7 88 1.6 E 19 24 10 13 1011.1 - 0.0
16/09:00am 28.6 33.2 26.6 89 1.4 ESE 15 20 8 11 1010.9 1010.9 24.4
16/08:30am 28.6 33.4 26.8 90 1.3 ESE 15 20 8 11 1010.5 - 24.4
16/08:00am 28.3 32.8 26.9 92 1.0 E 17 22 9 12 1010.2 - 24.4
16/07:30am 27.7 33.6 26.8 95 0.6 ESE 9 13 5 7 1010.1 - 24.4
16/07:00am 25.9 30.6 25.0 95 0.6 ESE 9 13 5 7 1010.0 - 24.4
16/06:30am 25.8 30.2 25.1 96 0.5 ESE 11 15 6 8 1009.7 - 24.4
16/06:00am 26.1 30.8 25.6 97 0.4 SE 11 17 6 9 1009.5 1009.5 24.4
16/05:30am 25.1 31.2 24.4 96 0.5 CALM 0 0 0 0 1009.5 - 24.4
16/05:00am 25.1 31.2 24.4 96 0.5 CALM 0 0 0 0 1009.5 - 24.4
16/04:30am 25.3 31.4 24.4 95 0.6 CALM 0 0 0 0 1009.5 - 24.4
16/04:00am 25.6 31.8 24.6 94 0.7 CALM 0 0 0 0 1009.4 - 24.4
16/03:30am 25.7 32.0 24.7 94 0.7 CALM 0 0 0 0 1009.3 - 24.4
16/03:00am 26.4 31.8 25.2 93 0.8 E 6 9 3 5 1009.2 1009.2 24.4
16/02:30am 26.7 31.4 25.5 93 0.8 E 11 17 6 9 1009.1 - 24.4
16/02:00am 26.8 31.3 25.8 94 0.7 E 13 17 7 9 1009.4 - 24.4
16/01:30am 26.8 31.3 25.8 94 0.7 ENE 13 19 7 10 1010.0 - 24.4
16/01:00am 26.5 32.0 25.6 95 0.6 E 7 13 4 7 1010.4 - 24.4
16/12:30am 26.3 31.7 25.4 95 0.6 E 7 9 4 5 1011.0 - 24.4
16/12:00am 26.2 31.3 25.5 96 0.5 E 9 11 5 6 1011.1 1011.1 24.4
 
Date/Time
EST
Temp
°C
App
Temp
°C
Dew
Point
Rel
Hum
%
Delta-T
°C
Wind Press
QNH
hPa
Press
MSL
hPa
Rain
since 9 am
mm
Dir
 
Spd
km/h
Gust
km/h
Spd
kts
Gust
kts
15/11:30pm 25.8 30.6 25.1 96 0.5 ENE 9 13 5 7 1011.3 - 24.4
15/11:00pm 25.4 31.7 24.7 96 0.5 CALM 0 0 0 0 1011.1 - 24.4
15/10:30pm 25.5 30.6 24.6 95 0.6 SSW 6 7 3 4 1011.2 - 24.4
15/10:00pm 25.7 32.0 24.8 95 0.6 CALM 0 0 0 0 1011.1 - 24.4
15/09:30pm 25.6 31.4 24.6 94 0.7 SSE 2 6 1 3 1011.3 - 24.4
15/09:00pm 25.6 31.8 24.6 94 0.7 CALM 0 0 0 0 1011.1 1011.1 24.4
15/08:30pm 25.6 31.7 24.4 93 0.8 CALM 0 0 0 0 1010.6 - 24.4
15/08:00pm 25.7 31.7 24.3 92 1.0 CALM 0 0 0 0 1010.0 - 24.4
15/07:30pm 25.8 31.8 24.2 91 1.1 CALM 0 0 0 0 1009.6 - 24.4
15/07:00pm 26.2 32.3 24.4 90 1.2 CALM 0 0 0 0 1009.1 - 24.4
15/06:30pm 26.3 31.0 24.3 89 1.4 SSW 7 9 4 5 1008.5 - 24.4
15/06:00pm 26.8 31.9 24.6 88 1.5 SSE 6 7 3 4 1008.5 1008.5 24.4
15/05:30pm 26.9 31.7 24.5 87 1.7 S 7 9 4 5 1008.2 - 24.4
15/05:00pm 27.3 32.0 24.9 87 1.7 SSE 9 11 5 6 1007.8 - 24.4
15/04:30pm 27.6 33.1 25.6 89 1.4 E 7 9 4 5 1007.6 - 24.4
15/04:00pm 27.4 32.7 25.2 88 1.5 NNW 7 9 4 5 1007.5 - 24.4
15/03:30pm 27.1 32.4 25.3 90 1.3 NNW 7 9 4 5 1007.6 - 24.4
15/03:00pm 27.4 33.4 26.0 92 1.0 NNW 6 7 3 4 1007.9 1007.9 24.4
15/02:30pm 26.4 32.0 25.5 95 0.6 N 6 9 3 5 1008.8 - 24.4
15/02:00pm 26.1 31.7 25.4 96 0.5 NW 6 7 3 4 1009.6 - 24.2
15/01:30pm 25.6 31.0 25.1 97 0.3 N 6 7 3 4 1010.2 - 24.0
15/01:00pm 25.2 30.8 24.9 98 0.2 ESE 4 6 2 3 1010.7 - 23.6
15/12:30pm 24.6 30.6 24.3 98 0.2 CALM 0 0 0 0 1011.7 - 23.2
15/12:14pm 24.4 30.3 24.1 98 0.2 CALM 0 0 0 0 1012.0 - 23.2
15/12:00pm 24.0 28.9 23.7 98 0.2 ESE 4 7 2 4 1012.2 1012.2 22.6
15/11:30am 23.9 28.8 23.6 98 0.2 ESE 4 7 2 4 1012.7 - 20.2
15/11:00am 23.7 28.8 23.4 98 0.2 ESE 2 7 1 4 1013.1 - 17.6
15/10:30am 23.6 27.2 23.1 97 0.3 S 9 13 5 7 1013.1 - 14.6
15/10:00am 24.3 28.7 23.8 97 0.3 ESE 7 15 4 8 1013.2 - 5.0
15/09:30am 24.4 30.2 23.9 97 0.3 CALM 0 0 0 0 1013.2 - 2.8
15/09:00am 24.3 29.9 23.6 96 0.5 CALM 0 0 0 0 1012.8 1012.8 4.2
15/08:48am 24.3 28.8 23.6 96 0.5 WSW 6 11 3 6 1012.6 - 3.0
15/08:30am 24.3 28.1 23.4 95 0.6 SW 9 17 5 9 1012.1 - 2.2
15/08:00am 25.0 28.1 24.1 95 0.6 SW 15 24 8 13 1011.5 - 2.2
15/07:48am 25.1 28.3 24.4 96 0.5 SW 15 26 8 14 1011.3 - 2.2
15/07:30am 25.0 29.2 24.1 95 0.6 WSW 9 11 5 6 1010.9 - 2.2
15/07:00am 25.4 28.4 24.7 96 0.5 NW 17 24 9 13 1010.5 - 2.2
15/06:38am 25.8 28.5 25.1 96 0.5 NNW 20 24 11 13 1010.3 - 2.2
15/06:30am 25.7 29.6 24.8 95 0.6 WNW 13 19 7 10 1010.0 - 2.2
15/06:13am 25.2 29.5 24.3 95 0.6 SSW 9 15 5 8 1009.7 - 1.0
15/06:00am 25.4 28.7 24.5 95 0.6 S 15 22 8 12 1009.6 1009.6 0.4
15/05:57am 25.6 28.6 24.7 95 0.6 S 17 22 9 12 1009.5 - 0.4
15/05:46am 25.9 31.8 25.4 97 0.3 E 4 11 2 6 1009.6 - 0.2
15/05:30am 26.4 33.4 25.9 97 0.4 CALM 0 0 0 0 1009.4 - 0.2
15/05:00am 26.4 33.3 25.7 96 0.5 CALM 0 0 0 0 1009.3 - 0.2

Other Formats:

Comma delimited format used in spreadsheet applications
http://www.bom.gov.au/fwo/IDQ60801/IDQ60801.94174.axf

JavaScript Object Notation format (JSON) in row-major order
http://www.bom.gov.au/fwo/IDQ60801/IDQ60801.94174.json